Aérodrome :
LOGIN :

S'inscrire | Disclaimer

   EN    FR    IT 

 










Légende :    VFR   VFR Marginal   IFR   IFR Intensif   IFR Très Intensif
Visi : 
Plafond : 
>= 8 km
>= 3000ft
5 à 8 km
1000 à 3000 ft
1500m à 5 km
500 à 1000 ft
800 à 1500m
200 à 500 ft
< 800m
< 200 ft
Symboles :   Orages  Brouillard  Fortes neiges  Fortes précipitations  Vent > 20 kt
SIGMETs :   Divers  Orages  Givrage  Turbulence  Onde Orograph.  Cendres Volcan.







- Altitude de l'aérodrome : 0 ft


ETEB - Ansbach Army Heliport

DERNIER METAR :
  • 172100Z AUTO 00000KT 1600 BR VV002 03/03 A3025 RMK AO2 VIS 1600V2800 SLP279 RVRNO $

METARs EXPIRÉS :
  • 172048Z AUTO 00000KT 3200 BR OVC002 03/03 A3025 RMK AO2 VIS 3200V4000 SLP279 $
  • 172008Z AUTO 00000KT 4000 BR OVC003 03/03 A3025 RMK AO2 SLP279 $
  • 171958Z AUTO 00000KT 4000 BR OVC002 03/03 A3025 RMK AO2 SLP279 T00290028 $
  • 171937Z AUTO 00000KT 3200 BR OVC002 03/03 A3026 RMK AO2 VIS 2000V3200 SLP282
  • 171927Z AUTO 00000KT 2000 BR OVC002 03/03 A3026 RMK AO2 SLP282
  • 171918Z AUTO 00000KT 1600 BR VV002 03/03 A3026 RMK AO2 VIS 1600V4000 SLP282 RVRNO $
  • 171858Z AUTO 00000KT 4000 BR OVC003 03/03 A3026 RMK AO2 VIS 4000V5000 SLP282 T00290028 $
  • 171848Z AUTO 00000KT 5000 BR OVC003 03/03 A3026 RMK AO2 SLP282 $
  • 171838Z AUTO 00000KT 3200 BR OVC003 03/03 A3026 RMK AO2 SLP282 $
  • 171828Z AUTO 00000KT 2800 BR OVC003 03/03 A3026 RMK AO2 SLP282

TAF AMD TAF ETEB
Valide du 17 à 17h jusqu'au 18 à 19h UTC


171713Z 1717/1819 28006KT 4000 BR OVC004 610509 QNH3016INS
BECMG 1804/1805 26006KT 9999 NSW BKN010 OVC030 610309 QNH3015INS
BECMG 1806/1807 27010G15KT 9999 SCT010 BKN030 610305 QNH3007INS
BECMG 1815/1816 27015G25KT 9999 SCT015 BKN030 610305 QNH3005INS TX04/1717Z TN01/1803Z LAST NO AMDS AFT 1717 NEXT 1805
Pas de NOTAMs connus pour ce terrain.



MET'MAP, la Météo Aéronautique d'un coup d'oeil ! - Copyright ORBIFLY Décembre 2007 - Disclaimer

ORBIFLY MET'MAP TEAM :

Programmation & Développement : Alexandra Zaïnal
Conception & Développement : Baudouin d'Aumeries
Co-Programmation & Développement : Marc-Olivier Méhu
Soutien technique & logistique : Manuel Goepfert

Contact : metmap@orbifly.com




SOURCES & CREDITS :

   NOAA